createdAt,value
2019-05-18T00:02:21.556Z,13.03
2019-05-18T00:04:52.156Z,13.09
2019-05-18T00:07:25.755Z,13.05
2019-05-18T00:09:56.309Z,13.03
2019-05-18T00:12:26.931Z,13.04
2019-05-18T00:14:57.507Z,13.02
2019-05-18T00:17:28.163Z,13.03
2019-05-18T00:19:58.700Z,13.03
2019-05-18T00:22:29.315Z,12.98
2019-05-18T00:24:59.872Z,12.95
2019-05-18T00:27:32.125Z,12.90
2019-05-18T00:30:02.698Z,12.83
2019-05-18T00:32:33.313Z,12.83
2019-05-18T00:35:03.936Z,12.84
2019-05-18T00:37:34.560Z,12.81
2019-05-18T00:40:07.588Z,12.80
2019-05-18T00:42:38.229Z,12.72
2019-05-18T00:45:11.253Z,12.61
2019-05-18T00:47:42.433Z,12.63
2019-05-18T00:50:13.408Z,12.63
2019-05-18T00:52:44.017Z,12.58
2019-05-18T00:55:14.764Z,12.57
2019-05-18T00:57:45.369Z,12.53
2019-05-18T01:00:16.591Z,12.54
2019-05-18T01:02:47.229Z,12.46
2019-05-18T01:05:17.868Z,12.39
2019-05-18T01:07:48.429Z,12.39
2019-05-18T01:10:18.977Z,12.41
2019-05-18T01:12:49.590Z,12.43
2019-05-18T01:15:20.633Z,12.41
2019-05-18T01:17:57.320Z,12.38
2019-05-18T01:20:23.524Z,12.26
2019-05-18T01:22:54.131Z,12.15
2019-05-18T01:25:24.640Z,12.05
2019-05-18T01:27:55.274Z,12.05
2019-05-18T01:30:26.787Z,12.09
2019-05-18T01:32:59.042Z,12.05
2019-05-18T01:35:29.605Z,12.11
2019-05-18T01:38:00.141Z,12.09
2019-05-18T01:40:30.753Z,11.96
2019-05-18T01:43:01.298Z,11.99
2019-05-18T01:45:31.875Z,11.98
2019-05-18T01:48:13.470Z,11.92
2019-05-18T01:50:34.758Z,11.90
2019-05-18T01:53:05.321Z,11.91
2019-05-18T01:55:35.921Z,11.89
2019-05-18T01:58:06.471Z,11.87
2019-05-18T02:00:37.109Z,11.76
2019-05-18T02:03:09.266Z,11.66
2019-05-18T02:05:39.863Z,11.68
2019-05-18T02:08:10.460Z,11.61
2019-05-18T02:10:41.008Z,11.70
2019-05-18T02:13:11.625Z,11.73
2019-05-18T02:15:42.191Z,11.77
2019-05-18T02:18:26.895Z,11.75
2019-05-18T02:20:45.077Z,11.71
2019-05-18T02:23:15.669Z,11.63
2019-05-18T02:25:46.263Z,11.67
2019-05-18T02:28:17.862Z,11.63
2019-05-18T02:30:49.790Z,11.56
2019-05-18T02:33:20.351Z,11.48
2019-05-18T02:35:50.909Z,11.46
2019-05-18T02:38:21.514Z,11.45
2019-05-18T02:40:52.074Z,11.51
2019-05-18T02:43:22.653Z,11.53
2019-05-18T02:45:53.181Z,11.54
2019-05-18T02:48:25.507Z,11.54
2019-05-18T02:50:56.080Z,11.44
2019-05-18T02:53:26.646Z,11.44
2019-05-18T02:55:57.228Z,11.44
2019-05-18T02:58:27.840Z,11.35
2019-05-18T03:00:58.397Z,11.20
2019-05-18T03:03:28.972Z,11.27
2019-05-18T03:05:59.745Z,11.27
2019-05-18T03:08:30.296Z,11.29
2019-05-18T03:11:01.226Z,11.28
2019-05-18T03:13:31.813Z,11.22
2019-05-18T03:16:02.609Z,11.26
2019-05-18T03:18:33.194Z,11.21
2019-05-18T03:21:03.762Z,11.10
2019-05-18T03:23:34.415Z,11.18
2019-05-18T03:26:04.964Z,11.21
2019-05-18T03:28:38.555Z,11.26
2019-05-18T03:31:09.137Z,11.18
2019-05-18T03:33:39.689Z,11.22
2019-05-18T03:36:10.263Z,11.19
2019-05-18T03:38:41.004Z,11.07
2019-05-18T03:41:11.524Z,11.02
2019-05-18T03:43:42.150Z,10.96
2019-05-18T03:46:12.688Z,10.97
2019-05-18T03:48:43.272Z,10.89
2019-05-18T03:51:13.869Z,10.86
2019-05-18T03:53:44.465Z,10.90
2019-05-18T03:56:15.042Z,10.88
2019-05-18T03:58:45.639Z,10.94
2019-05-18T04:01:16.214Z,10.98
2019-05-18T04:03:46.826Z,11.02
2019-05-18T04:06:17.364Z,10.91
2019-05-18T04:08:47.927Z,10.74
2019-05-18T04:11:18.552Z,10.82
2019-05-18T04:13:49.160Z,10.79
2019-05-18T04:16:19.674Z,10.90
2019-05-18T04:18:50.240Z,10.98
2019-05-18T04:21:20.773Z,10.97
2019-05-18T04:23:51.299Z,11.04
2019-05-18T04:26:21.952Z,11.08
2019-05-18T04:28:52.500Z,11.10
2019-05-18T04:31:23.137Z,11.15
2019-05-18T04:33:53.651Z,11.16
2019-05-18T04:36:24.251Z,11.21
2019-05-18T04:38:54.913Z,11.19
2019-05-18T04:41:25.528Z,11.13
2019-05-18T04:43:56.079Z,11.06
2019-05-18T04:46:26.668Z,11.11
2019-05-18T04:49:00.060Z,11.13
2019-05-18T04:51:31.773Z,11.09
2019-05-18T04:54:02.382Z,11.10
2019-05-18T04:56:34.337Z,11.09
2019-05-18T04:59:04.957Z,11.16
2019-05-18T05:01:35.546Z,11.18
2019-05-18T05:04:06.147Z,11.20
2019-05-18T05:06:36.753Z,11.10
2019-05-18T05:09:09.089Z,11.19
2019-05-18T05:11:39.655Z,11.29
2019-05-18T05:14:10.181Z,11.33
2019-05-18T05:16:41.749Z,11.32
2019-05-18T05:19:12.364Z,11.36
2019-05-18T05:21:42.912Z,11.43
2019-05-18T05:24:13.486Z,11.50
2019-05-18T05:26:44.121Z,11.53
2019-05-18T05:29:17.641Z,11.52
2019-05-18T05:31:48.275Z,11.44
2019-05-18T05:34:18.880Z,11.49
2019-05-18T05:36:49.474Z,11.58
2019-05-18T05:39:21.820Z,11.63
2019-05-18T05:41:52.384Z,11.69
2019-05-18T05:44:23.029Z,11.72
2019-05-18T05:46:53.591Z,11.71
2019-05-18T05:49:26.584Z,11.77
2019-05-18T05:51:57.160Z,11.82
2019-05-18T05:54:29.682Z,11.83
2019-05-18T05:57:00.291Z,11.88
2019-05-18T05:59:30.897Z,11.93
2019-05-18T06:02:01.504Z,11.97
2019-05-18T06:04:32.123Z,11.96
2019-05-18T06:07:02.682Z,12.00
2019-05-18T06:09:33.328Z,12.01
2019-05-18T06:12:04.746Z,11.99
2019-05-18T06:14:35.380Z,12.00
2019-05-18T06:17:08.402Z,11.91
2019-05-18T06:19:38.305Z,12.00
2019-05-18T06:22:10.147Z,12.07
2019-05-18T06:24:41.926Z,12.15
2019-05-18T06:27:12.481Z,12.19
2019-05-18T06:29:43.778Z,12.21
2019-05-18T06:32:14.417Z,12.16
2019-05-18T06:34:45.075Z,12.18
2019-05-18T06:37:15.633Z,12.30
2019-05-18T06:39:46.282Z,12.36
2019-05-18T06:42:16.969Z,12.35
2019-05-18T06:44:47.624Z,12.36
2019-05-18T06:47:18.185Z,12.50
2019-05-18T06:49:48.832Z,12.57
2019-05-18T06:52:19.398Z,12.69
2019-05-18T06:54:50.084Z,12.74
2019-05-18T06:57:23.102Z,12.84
2019-05-18T06:59:53.918Z,12.89
2019-05-18T07:02:24.521Z,12.95
2019-05-18T07:04:55.119Z,13.04
2019-05-18T07:07:27.452Z,13.11
2019-05-18T07:09:58.104Z,13.15
2019-05-18T07:12:29.011Z,13.29
2019-05-18T07:15:00.518Z,13.37
2019-05-18T07:17:34.501Z,13.45
2019-05-18T07:20:04.085Z,13.53
2019-05-18T07:22:34.672Z,13.67
2019-05-18T07:25:05.354Z,13.80
2019-05-18T07:27:37.650Z,13.85
2019-05-18T07:30:08.793Z,13.97
2019-05-18T07:32:40.718Z,14.07
2019-05-18T07:35:11.922Z,14.15
2019-05-18T07:37:42.533Z,14.22
2019-05-18T07:40:13.339Z,14.28
2019-05-18T07:42:43.890Z,14.35
2019-05-18T07:45:15.717Z,14.41
2019-05-18T07:47:46.280Z,14.47
2019-05-18T07:50:17.103Z,14.54
2019-05-18T07:52:47.751Z,14.56
2019-05-18T07:55:18.805Z,14.63
2019-05-18T07:57:49.481Z,14.70
2019-05-18T08:00:20.141Z,14.78
2019-05-18T08:02:50.674Z,14.86
2019-05-18T08:05:21.927Z,14.95
2019-05-18T08:07:52.596Z,15.04
2019-05-18T08:10:36.954Z,15.15
2019-05-18T08:13:08.355Z,15.25
2019-05-18T08:15:39.057Z,15.37
2019-05-18T08:18:09.637Z,15.44
2019-05-18T08:20:40.236Z,15.56
2019-05-18T08:23:10.813Z,15.65
2019-05-18T08:25:41.419Z,15.74
2019-05-18T08:28:11.996Z,15.81
2019-05-18T08:30:42.569Z,15.90
2019-05-18T08:33:17.079Z,15.97
2019-05-18T08:35:47.707Z,16.07
2019-05-18T08:38:18.295Z,16.16
2019-05-18T08:40:48.936Z,16.20
2019-05-18T08:43:20.626Z,16.29
2019-05-18T08:45:52.447Z,16.34
2019-05-18T08:48:23.039Z,16.36
2019-05-18T08:50:53.641Z,16.39
2019-05-18T08:53:24.217Z,16.44
2019-05-18T08:55:54.830Z,16.49
2019-05-18T08:58:25.496Z,16.52
2019-05-18T09:00:56.070Z,16.59
2019-05-18T09:03:26.668Z,16.60
2019-05-18T09:05:57.315Z,16.69
2019-05-18T09:08:27.913Z,16.76
2019-05-18T09:10:58.476Z,16.82
2019-05-18T09:13:29.108Z,16.87
2019-05-18T09:15:59.758Z,16.92
2019-05-18T09:18:30.321Z,16.98
2019-05-18T09:21:00.906Z,17.06
2019-05-18T09:23:33.499Z,17.14
2019-05-18T09:26:04.096Z,17.24
2019-05-18T09:28:34.721Z,17.35
2019-05-18T09:31:05.299Z,17.37
2019-05-18T09:33:35.913Z,17.42
2019-05-18T09:36:06.483Z,17.49
2019-05-18T09:38:41.687Z,17.56
2019-05-18T09:41:11.813Z,17.66
2019-05-18T09:43:42.411Z,17.73
2019-05-18T09:46:14.671Z,17.83
2019-05-18T09:48:45.220Z,17.92
2019-05-18T09:51:15.869Z,18.00
2019-05-18T09:53:51.447Z,18.02
2019-05-18T09:56:18.801Z,18.07
2019-05-18T09:58:50.507Z,18.04
2019-05-18T10:01:21.108Z,18.08
2019-05-18T10:03:51.889Z,18.12
2019-05-18T10:06:22.523Z,18.18
2019-05-18T10:08:53.082Z,18.20
2019-05-18T10:11:23.794Z,18.24
2019-05-18T10:13:54.904Z,18.31
2019-05-18T10:16:25.528Z,18.35
2019-05-18T10:18:56.098Z,18.38
2019-05-18T10:21:26.694Z,18.43
2019-05-18T10:23:57.273Z,18.46
2019-05-18T10:26:27.880Z,18.50
2019-05-18T10:28:58.476Z,18.50
2019-05-18T10:31:29.078Z,18.53
2019-05-18T10:33:59.632Z,18.56
2019-05-18T10:36:30.166Z,18.54
2019-05-18T10:39:00.786Z,18.62
2019-05-18T10:41:31.461Z,18.68
2019-05-18T10:44:02.057Z,18.68
2019-05-18T10:46:33.439Z,18.73
2019-05-18T10:49:04.046Z,18.83
2019-05-18T10:51:34.682Z,18.88
2019-05-18T10:54:05.258Z,18.94
2019-05-18T10:56:35.837Z,18.97
2019-05-18T10:59:06.498Z,19.03
2019-05-18T11:01:37.079Z,19.07
2019-05-18T11:04:10.431Z,19.11
2019-05-18T11:06:41.042Z,19.20
2019-05-18T11:09:11.624Z,19.27
2019-05-18T11:11:43.919Z,19.33
2019-05-18T11:14:14.471Z,19.38
2019-05-18T11:16:45.502Z,19.40
2019-05-18T11:19:16.326Z,19.44
2019-05-18T11:21:46.962Z,19.52
2019-05-18T11:24:17.578Z,19.47
2019-05-18T11:26:48.197Z,19.45
2019-05-18T11:29:22.645Z,19.43
2019-05-18T11:31:51.158Z,19.45
2019-05-18T11:34:21.781Z,19.48
2019-05-18T11:36:52.432Z,19.53
2019-05-18T11:39:22.993Z,19.57
2019-05-18T11:41:53.629Z,19.53
2019-05-18T11:44:24.183Z,19.56
2019-05-18T11:46:55.973Z,19.59
2019-05-18T11:49:29.045Z,19.65
2019-05-18T11:51:58.899Z,19.67
2019-05-18T11:54:29.495Z,19.69
2019-05-18T11:57:00.107Z,19.72
2019-05-18T11:59:30.800Z,19.77
2019-05-18T12:02:01.480Z,19.87
2019-05-18T12:04:32.038Z,19.85
2019-05-18T12:07:02.669Z,19.97
2019-05-18T12:09:33.200Z,20.01
2019-05-18T12:12:03.837Z,20.03
2019-05-18T12:14:36.106Z,20.13
2019-05-18T12:17:06.734Z,20.22
2019-05-18T12:19:37.390Z,20.21
2019-05-18T12:22:08.134Z,20.20
2019-05-18T12:24:38.713Z,20.21
2019-05-18T12:27:10.611Z,20.24
2019-05-18T12:29:41.160Z,20.26
2019-05-18T12:32:11.846Z,20.30
2019-05-18T12:34:44.954Z,20.31
2019-05-18T12:37:23.145Z,20.30
2019-05-18T12:39:54.859Z,20.33
2019-05-18T12:42:25.523Z,20.24
2019-05-18T12:44:56.088Z,20.25
2019-05-18T12:47:26.785Z,20.31
2019-05-18T12:49:57.407Z,20.39
2019-05-18T12:52:27.976Z,20.39
2019-05-18T12:54:58.584Z,20.46
2019-05-18T12:57:29.176Z,20.54
2019-05-18T13:00:02.943Z,20.59
2019-05-18T13:02:33.653Z,20.65
2019-05-18T13:05:04.374Z,20.69
2019-05-18T13:07:36.417Z,20.72
2019-05-18T13:10:08.014Z,20.76
2019-05-18T13:12:38.677Z,20.87
2019-05-18T13:15:12.905Z,20.91
2019-05-18T13:17:43.499Z,20.98
2019-05-18T13:20:17.678Z,21.07
2019-05-18T13:22:48.329Z,21.15
2019-05-18T13:25:19.380Z,21.12
2019-05-18T13:27:50.021Z,21.13
2019-05-18T13:30:22.669Z,21.18
2019-05-18T13:32:53.222Z,21.23
2019-05-18T13:35:23.795Z,21.26
2019-05-18T13:37:54.408Z,21.25
2019-05-18T13:40:25.050Z,21.31
2019-05-18T13:42:55.652Z,21.34
2019-05-18T13:45:26.253Z,21.30
2019-05-18T13:47:56.875Z,21.38
2019-05-18T13:50:27.415Z,21.52
2019-05-18T13:52:58.098Z,21.67
2019-05-18T13:55:30.282Z,21.72
2019-05-18T13:58:00.943Z,21.77
2019-05-18T14:00:31.491Z,21.89
2019-05-18T14:03:02.160Z,21.97
2019-05-18T14:05:35.543Z,21.98
2019-05-18T14:08:06.274Z,22.01
2019-05-18T14:10:36.794Z,21.98
2019-05-18T14:13:07.457Z,22.06
2019-05-18T14:15:38.115Z,22.08
2019-05-18T14:18:08.797Z,22.08
2019-05-18T14:20:39.351Z,21.98
2019-05-18T14:23:11.103Z,21.97
2019-05-18T14:25:46.155Z,22.06
2019-05-18T14:28:19.284Z,22.18
2019-05-18T14:30:49.885Z,22.23
2019-05-18T14:33:20.481Z,22.28
2019-05-18T14:35:51.092Z,22.21
2019-05-18T14:38:21.709Z,22.23
2019-05-18T14:40:52.246Z,22.19
2019-05-18T14:43:28.983Z,22.17
2019-05-18T14:45:59.606Z,22.19
2019-05-18T14:48:33.872Z,22.13
2019-05-18T14:51:04.428Z,22.11
2019-05-18T14:53:35.103Z,22.06
2019-05-18T14:56:06.351Z,22.03
2019-05-18T14:58:36.947Z,22.01
2019-05-18T15:01:07.593Z,21.98
2019-05-18T15:03:38.314Z,21.95
2019-05-18T15:06:08.889Z,21.93
2019-05-18T15:08:39.515Z,21.89
2019-05-18T15:11:10.102Z,21.84
2019-05-18T15:13:40.775Z,21.85
2019-05-18T15:16:11.402Z,21.86
2019-05-18T15:18:42.030Z,21.81
2019-05-18T15:21:12.670Z,21.71
2019-05-18T15:23:43.344Z,21.59
2019-05-18T15:26:14.082Z,21.56
2019-05-18T15:28:44.711Z,21.61
2019-05-18T15:31:17.559Z,21.62
2019-05-18T15:33:48.260Z,21.63
2019-05-18T15:36:20.906Z,21.62
2019-05-18T15:38:51.553Z,21.65
2019-05-18T15:41:22.093Z,21.63
2019-05-18T15:43:52.733Z,21.56
2019-05-18T15:46:26.397Z,21.25
2019-05-18T15:48:57.231Z,20.82
2019-05-18T15:51:27.951Z,20.26
2019-05-18T15:53:58.633Z,20.00
2019-05-18T15:56:29.317Z,19.92
2019-05-18T15:59:00.108Z,19.73
2019-05-18T16:01:30.724Z,19.75
2019-05-18T16:04:01.432Z,19.64
2019-05-18T16:06:33.349Z,19.53
2019-05-18T16:09:05.525Z,19.31
2019-05-18T16:11:36.076Z,19.27
2019-05-18T16:14:06.841Z,19.11
2019-05-18T16:16:38.096Z,18.90
2019-05-18T16:19:08.752Z,18.46
2019-05-18T16:21:39.820Z,18.27
2019-05-18T16:24:10.455Z,18.22
2019-05-18T16:26:41.036Z,17.93
2019-05-18T16:29:13.065Z,17.62
2019-05-18T16:31:43.667Z,17.44
2019-05-18T16:34:14.375Z,17.44
2019-05-18T16:36:45.090Z,17.29
2019-05-18T16:39:15.701Z,17.28
2019-05-18T16:41:47.001Z,17.31
2019-05-18T16:44:17.589Z,17.31
2019-05-18T16:46:48.205Z,17.23
2019-05-18T16:49:18.877Z,17.21
2019-05-18T16:51:50.495Z,17.02
2019-05-18T16:54:21.179Z,17.15
2019-05-18T17:01:00.426Z,17.00
2019-05-18T17:06:38.776Z,17.00
2019-05-18T17:13:04.595Z,16.90
2019-05-18T17:19:32.218Z,16.81
2019-05-18T17:26:09.132Z,16.74
2019-05-18T17:32:39.894Z,16.46
2019-05-18T17:39:07.793Z,16.35
2019-05-18T17:45:49.048Z,16.19
2019-05-18T17:52:14.642Z,16.17
2019-05-18T17:58:41.700Z,16.02
2019-05-18T18:05:07.521Z,16.03
2019-05-18T18:14:43.217Z,15.93
2019-05-18T18:21:22.861Z,15.84
2019-05-18T18:27:52.028Z,15.79
2019-05-18T18:34:16.596Z,15.71
2019-05-18T18:40:42.448Z,15.66
2019-05-18T18:47:11.171Z,15.53
2019-05-18T18:53:39.378Z,15.48
2019-05-18T19:00:06.964Z,15.46
2019-05-18T19:06:44.128Z,15.40
2019-05-18T19:16:47.099Z,15.29
2019-05-18T19:23:12.916Z,15.27
2019-05-18T19:29:38.513Z,15.22
2019-05-18T19:36:17.470Z,15.23
2019-05-18T19:42:41.281Z,15.15
2019-05-18T19:49:08.761Z,15.15
2019-05-18T19:55:38.184Z,15.12
2019-05-18T20:02:19.154Z,15.03
2019-05-18T20:08:21.392Z,14.98
2019-05-18T20:14:51.397Z,15.02
2019-05-18T20:21:22.111Z,14.93
2019-05-18T20:27:50.305Z,14.82
2019-05-18T20:34:16.132Z,14.78
2019-05-18T20:40:41.943Z,14.87
2019-05-18T20:47:20.668Z,14.69
2019-05-18T20:53:46.511Z,14.69
2019-05-18T20:59:34.153Z,14.70
2019-05-18T21:06:01.997Z,14.67
2019-05-18T21:12:40.715Z,14.64
2019-05-18T21:18:56.320Z,14.67
2019-05-18T21:25:24.519Z,14.69
2019-05-18T21:31:54.369Z,14.64
2019-05-18T21:38:22.206Z,14.58
2019-05-18T21:44:51.053Z,14.58
2019-05-18T21:51:16.634Z,14.50
2019-05-18T21:57:57.841Z,14.37
2019-05-18T22:04:21.438Z,14.38
2019-05-18T22:10:48.471Z,14.44
2019-05-18T22:20:50.229Z,14.42
2019-05-18T22:27:29.188Z,14.34
2019-05-18T22:33:52.992Z,14.29
2019-05-18T22:40:22.036Z,14.23
2019-05-18T22:46:49.873Z,14.21
2019-05-18T22:53:26.801Z,14.24
2019-05-18T22:59:54.411Z,14.14
2019-05-18T23:06:20.268Z,14.16
2019-05-18T23:12:57.181Z,14.18
2019-05-18T23:22:47.005Z,14.04
2019-05-18T23:29:00.931Z,13.81
2019-05-18T23:35:28.773Z,13.87
2019-05-18T23:41:54.595Z,13.97
2019-05-18T23:48:31.521Z,13.88
2019-05-18T23:54:57.341Z,13.74
